sensor_id;sensor_type;location;lat;lon;timestamp;P1;durP1;ratioP1;P2;durP2;ratioP2
32613;SDS011;19031;51.400;6.770;2023-03-23T00:01:27;2.03;;;1.00;;
32613;SDS011;19031;51.400;6.770;2023-03-23T00:03:57;4.88;;;0.82;;
32613;SDS011;19031;51.400;6.770;2023-03-23T00:06:24;1.42;;;0.80;;
32613;SDS011;19031;51.400;6.770;2023-03-23T00:08:51;1.75;;;0.88;;
32613;SDS011;19031;51.400;6.770;2023-03-23T00:11:24;3.17;;;0.88;;
32613;SDS011;19031;51.400;6.770;2023-03-23T00:13:54;2.55;;;0.90;;
32613;SDS011;19031;51.400;6.770;2023-03-23T00:16:23;3.28;;;1.05;;
32613;SDS011;19031;51.400;6.770;2023-03-23T00:18:55;1.20;;;0.80;;
32613;SDS011;19031;51.400;6.770;2023-03-23T00:21:23;1.95;;;0.90;;
32613;SDS011;19031;51.400;6.770;2023-03-23T00:23:50;0.98;;;0.80;;
32613;SDS011;19031;51.400;6.770;2023-03-23T00:26:17;1.80;;;0.88;;
32613;SDS011;19031;51.400;6.770;2023-03-23T00:28:43;3.90;;;0.80;;
32613;SDS011;19031;51.400;6.770;2023-03-23T00:31:11;2.13;;;0.70;;
32613;SDS011;19031;51.400;6.770;2023-03-23T00:33:37;1.48;;;0.90;;
32613;SDS011;19031;51.400;6.770;2023-03-23T00:36:06;1.63;;;1.45;;
32613;SDS011;19031;51.400;6.770;2023-03-23T00:38:33;2.35;;;1.27;;
32613;SDS011;19031;51.400;6.770;2023-03-23T00:41:00;1.50;;;0.70;;
32613;SDS011;19031;51.400;6.770;2023-03-23T00:43:29;2.58;;;1.02;;
32613;SDS011;19031;51.400;6.770;2023-03-23T00:45:55;2.03;;;0.95;;
32613;SDS011;19031;51.400;6.770;2023-03-23T00:48:26;1.08;;;0.63;;
32613;SDS011;19031;51.400;6.770;2023-03-23T00:50:53;3.80;;;1.10;;
32613;SDS011;19031;51.400;6.770;2023-03-23T00:53:20;2.58;;;1.02;;
32613;SDS011;19031;51.400;6.770;2023-03-23T00:55:47;4.53;;;0.82;;
32613;SDS011;19031;51.400;6.770;2023-03-23T00:58:13;3.55;;;0.80;;
32613;SDS011;19031;51.400;6.770;2023-03-23T01:00:40;2.90;;;0.90;;
32613;SDS011;19031;51.400;6.770;2023-03-23T01:03:07;1.98;;;1.10;;
32613;SDS011;19031;51.400;6.770;2023-03-23T01:05:37;3.30;;;1.20;;
32613;SDS011;19031;51.400;6.770;2023-03-23T01:08:04;3.00;;;1.25;;
32613;SDS011;19031;51.400;6.770;2023-03-23T01:10:31;2.83;;;1.08;;
32613;SDS011;19031;51.400;6.770;2023-03-23T01:13:00;5.13;;;1.13;;
32613;SDS011;19031;51.400;6.770;2023-03-23T01:15:27;2.03;;;1.05;;
32613;SDS011;19031;51.400;6.770;2023-03-23T01:17:54;1.65;;;1.10;;
32613;SDS011;19031;51.400;6.770;2023-03-23T01:20:20;1.77;;;0.90;;
32613;SDS011;19031;51.400;6.770;2023-03-23T01:22:46;3.95;;;1.38;;
32613;SDS011;19031;51.400;6.770;2023-03-23T01:25:12;2.00;;;0.82;;
32613;SDS011;19031;51.400;6.770;2023-03-23T01:27:38;2.90;;;1.00;;
32613;SDS011;19031;51.400;6.770;2023-03-23T01:30:05;2.03;;;1.00;;
32613;SDS011;19031;51.400;6.770;2023-03-23T01:32:32;1.35;;;0.70;;
32613;SDS011;19031;51.400;6.770;2023-03-23T01:34:58;2.90;;;1.02;;
32613;SDS011;19031;51.400;6.770;2023-03-23T01:37:24;1.63;;;0.90;;
32613;SDS011;19031;51.400;6.770;2023-03-23T01:39:52;4.43;;;1.42;;
32613;SDS011;19031;51.400;6.770;2023-03-23T01:42:20;2.15;;;0.75;;
32613;SDS011;19031;51.400;6.770;2023-03-23T01:47:16;1.42;;;0.90;;
32613;SDS011;19031;51.400;6.770;2023-03-23T01:49:46;2.03;;;0.95;;
32613;SDS011;19031;51.400;6.770;2023-03-23T01:52:14;1.40;;;0.95;;
32613;SDS011;19031;51.400;6.770;2023-03-23T01:54:46;2.80;;;1.02;;
32613;SDS011;19031;51.400;6.770;2023-03-23T01:57:14;3.17;;;0.85;;
32613;SDS011;19031;51.400;6.770;2023-03-23T01:59:45;2.70;;;1.00;;
32613;SDS011;19031;51.400;6.770;2023-03-23T02:02:14;1.88;;;1.02;;
32613;SDS011;19031;51.400;6.770;2023-03-23T02:04:41;1.73;;;1.00;;
32613;SDS011;19031;51.400;6.770;2023-03-23T02:07:08;1.38;;;0.98;;
32613;SDS011;19031;51.400;6.770;2023-03-23T02:09:34;1.10;;;0.70;;
32613;SDS011;19031;51.400;6.770;2023-03-23T02:12:00;1.00;;;0.65;;
32613;SDS011;19031;51.400;6.770;2023-03-23T02:14:26;1.55;;;0.80;;
32613;SDS011;19031;51.400;6.770;2023-03-23T02:17:00;2.22;;;1.10;;
32613;SDS011;19031;51.400;6.770;2023-03-23T02:25:52;1.77;;;1.08;;
32613;SDS011;19031;51.400;6.770;2023-03-23T02:36:30;3.00;;;1.00;;
32613;SDS011;19031;51.400;6.770;2023-03-23T02:39:10;3.63;;;0.88;;
32613;SDS011;19031;51.400;6.770;2023-03-23T02:42:01;1.15;;;0.93;;
32613;SDS011;19031;51.400;6.770;2023-03-23T02:44:30;1.52;;;0.88;;
32613;SDS011;19031;51.400;6.770;2023-03-23T02:46:58;2.17;;;1.25;;
32613;SDS011;19031;51.400;6.770;2023-03-23T02:49:27;1.23;;;0.77;;
32613;SDS011;19031;51.400;6.770;2023-03-23T02:51:56;1.10;;;0.75;;
32613;SDS011;19031;51.400;6.770;2023-03-23T02:54:24;2.22;;;0.85;;
32613;SDS011;19031;51.400;6.770;2023-03-23T02:56:51;1.33;;;0.98;;
32613;SDS011;19031;51.400;6.770;2023-03-23T02:59:18;2.58;;;0.95;;
32613;SDS011;19031;51.400;6.770;2023-03-23T03:01:46;1.00;;;0.70;;
32613;SDS011;19031;51.400;6.770;2023-03-23T03:04:19;6.32;;;1.27;;
32613;SDS011;19031;51.400;6.770;2023-03-23T03:12:32;3.67;;;1.30;;
32613;SDS011;19031;51.400;6.770;2023-03-23T03:15:29;1.90;;;1.15;;
32613;SDS011;19031;51.400;6.770;2023-03-23T03:18:10;3.60;;;1.52;;
32613;SDS011;19031;51.400;6.770;2023-03-23T03:20:40;2.15;;;1.17;;
32613;SDS011;19031;51.400;6.770;2023-03-23T03:23:13;2.83;;;0.80;;
32613;SDS011;19031;51.400;6.770;2023-03-23T03:25:40;2.85;;;1.05;;
32613;SDS011;19031;51.400;6.770;2023-03-23T03:28:12;1.05;;;0.85;;
32613;SDS011;19031;51.400;6.770;2023-03-23T03:30:47;1.88;;;0.93;;
32613;SDS011;19031;51.400;6.770;2023-03-23T03:33:25;1.58;;;0.80;;
32613;SDS011;19031;51.400;6.770;2023-03-23T03:35:56;1.83;;;0.85;;
32613;SDS011;19031;51.400;6.770;2023-03-23T03:38:24;1.63;;;1.27;;
32613;SDS011;19031;51.400;6.770;2023-03-23T03:40:51;1.52;;;0.80;;
32613;SDS011;19031;51.400;6.770;2023-03-23T03:43:17;2.95;;;0.82;;
32613;SDS011;19031;51.400;6.770;2023-03-23T03:45:43;1.70;;;0.82;;
32613;SDS011;19031;51.400;6.770;2023-03-23T03:48:09;2.78;;;0.95;;
32613;SDS011;19031;51.400;6.770;2023-03-23T03:50:35;1.88;;;0.80;;
32613;SDS011;19031;51.400;6.770;2023-03-23T03:53:01;2.47;;;0.60;;
32613;SDS011;19031;51.400;6.770;2023-03-23T03:55:26;1.33;;;0.90;;
32613;SDS011;19031;51.400;6.770;2023-03-23T03:57:53;1.08;;;0.70;;
32613;SDS011;19031;51.400;6.770;2023-03-23T04:00:22;0.40;;;0.40;;
32613;SDS011;19031;51.400;6.770;2023-03-23T04:02:49;1.52;;;0.80;;
32613;SDS011;19031;51.400;6.770;2023-03-23T04:05:20;1.13;;;0.63;;
32613;SDS011;19031;51.400;6.770;2023-03-23T04:07:46;1.20;;;0.60;;
32613;SDS011;19031;51.400;6.770;2023-03-23T04:10:14;2.70;;;0.95;;
32613;SDS011;19031;51.400;6.770;2023-03-23T04:12:40;1.05;;;0.60;;
32613;SDS011;19031;51.400;6.770;2023-03-23T04:15:06;1.05;;;0.60;;
32613;SDS011;19031;51.400;6.770;2023-03-23T04:17:32;1.55;;;0.90;;
32613;SDS011;19031;51.400;6.770;2023-03-23T04:19:59;1.85;;;0.80;;
32613;SDS011;19031;51.400;6.770;2023-03-23T04:22:25;2.40;;;0.77;;
32613;SDS011;19031;51.400;6.770;2023-03-23T04:24:55;0.90;;;0.77;;
32613;SDS011;19031;51.400;6.770;2023-03-23T04:27:23;1.42;;;0.50;;
32613;SDS011;19031;51.400;6.770;2023-03-23T04:29:50;2.00;;;0.90;;
32613;SDS011;19031;51.400;6.770;2023-03-23T04:32:15;0.65;;;0.57;;
32613;SDS011;19031;51.400;6.770;2023-03-23T04:34:42;2.28;;;0.80;;
32613;SDS011;19031;51.400;6.770;2023-03-23T04:37:09;1.40;;;0.85;;
32613;SDS011;19031;51.400;6.770;2023-03-23T04:39:35;1.23;;;0.82;;
32613;SDS011;19031;51.400;6.770;2023-03-23T04:42:01;1.98;;;0.70;;
32613;SDS011;19031;51.400;6.770;2023-03-23T04:44:27;1.10;;;0.45;;
32613;SDS011;19031;51.400;6.770;2023-03-23T04:46:53;1.55;;;0.70;;
32613;SDS011;19031;51.400;6.770;2023-03-23T04:49:19;1.63;;;0.73;;
32613;SDS011;19031;51.400;6.770;2023-03-23T04:51:48;1.27;;;0.65;;
32613;SDS011;19031;51.400;6.770;2023-03-23T04:54:15;1.15;;;0.73;;
32613;SDS011;19031;51.400;6.770;2023-03-23T04:56:41;1.50;;;0.70;;
32613;SDS011;19031;51.400;6.770;2023-03-23T04:59:07;1.58;;;0.80;;
32613;SDS011;19031;51.400;6.770;2023-03-23T05:01:33;2.67;;;0.90;;
32613;SDS011;19031;51.400;6.770;2023-03-23T05:04:01;2.20;;;0.88;;
32613;SDS011;19031;51.400;6.770;2023-03-23T05:06:27;1.05;;;0.65;;
32613;SDS011;19031;51.400;6.770;2023-03-23T05:08:52;1.65;;;0.77;;
32613;SDS011;19031;51.400;6.770;2023-03-23T05:11:18;1.60;;;1.10;;
32613;SDS011;19031;51.400;6.770;2023-03-23T05:13:43;0.80;;;0.70;;
32613;SDS011;19031;51.400;6.770;2023-03-23T05:16:09;5.10;;;0.90;;
32613;SDS011;19031;51.400;6.770;2023-03-23T05:18:35;1.65;;;0.80;;
32613;SDS011;19031;51.400;6.770;2023-03-23T05:21:01;1.08;;;0.47;;
32613;SDS011;19031;51.400;6.770;2023-03-23T05:23:28;0.98;;;0.52;;
32613;SDS011;19031;51.400;6.770;2023-03-23T05:25:56;1.70;;;0.80;;
32613;SDS011;19031;51.400;6.770;2023-03-23T05:28:25;3.97;;;0.80;;
32613;SDS011;19031;51.400;6.770;2023-03-23T05:30:55;0.90;;;0.70;;
32613;SDS011;19031;51.400;6.770;2023-03-23T05:33:21;3.45;;;1.10;;
32613;SDS011;19031;51.400;6.770;2023-03-23T05:35:47;2.55;;;1.05;;
32613;SDS011;19031;51.400;6.770;2023-03-23T05:38:13;1.73;;;0.80;;
32613;SDS011;19031;51.400;6.770;2023-03-23T05:40:40;1.23;;;0.80;;
32613;SDS011;19031;51.400;6.770;2023-03-23T05:43:09;1.67;;;0.90;;
32613;SDS011;19031;51.400;6.770;2023-03-23T05:45:35;4.45;;;1.05;;
32613;SDS011;19031;51.400;6.770;2023-03-23T05:48:01;2.53;;;1.10;;
32613;SDS011;19031;51.400;6.770;2023-03-23T05:50:26;2.10;;;0.88;;
32613;SDS011;19031;51.400;6.770;2023-03-23T05:52:53;2.25;;;1.00;;
32613;SDS011;19031;51.400;6.770;2023-03-23T05:55:20;6.15;;;1.20;;
32613;SDS011;19031;51.400;6.770;2023-03-23T05:57:45;1.40;;;0.95;;
32613;SDS011;19031;51.400;6.770;2023-03-23T06:00:11;2.13;;;1.30;;
32613;SDS011;19031;51.400;6.770;2023-03-23T06:02:45;3.13;;;1.00;;
32613;SDS011;19031;51.400;6.770;2023-03-23T06:05:13;2.17;;;1.20;;
32613;SDS011;19031;51.400;6.770;2023-03-23T06:07:40;1.98;;;0.98;;
32613;SDS011;19031;51.400;6.770;2023-03-23T06:10:07;3.72;;;0.90;;
32613;SDS011;19031;51.400;6.770;2023-03-23T06:12:34;2.00;;;1.05;;
32613;SDS011;19031;51.400;6.770;2023-03-23T06:15:00;1.65;;;0.90;;
32613;SDS011;19031;51.400;6.770;2023-03-23T06:17:26;1.90;;;1.08;;
32613;SDS011;19031;51.400;6.770;2023-03-23T06:19:52;4.60;;;1.88;;
32613;SDS011;19031;51.400;6.770;2023-03-23T06:22:18;1.85;;;1.00;;
32613;SDS011;19031;51.400;6.770;2023-03-23T06:24:44;3.00;;;0.88;;
32613;SDS011;19031;51.400;6.770;2023-03-23T06:27:10;2.03;;;1.00;;
32613;SDS011;19031;51.400;6.770;2023-03-23T06:29:36;2.97;;;1.05;;
32613;SDS011;19031;51.400;6.770;2023-03-23T06:32:02;2.47;;;1.20;;
32613;SDS011;19031;51.400;6.770;2023-03-23T06:34:29;5.82;;;1.48;;
32613;SDS011;19031;51.400;6.770;2023-03-23T06:36:56;2.40;;;0.90;;
32613;SDS011;19031;51.400;6.770;2023-03-23T06:39:22;1.85;;;0.90;;
32613;SDS011;19031;51.400;6.770;2023-03-23T06:41:47;2.50;;;1.05;;
32613;SDS011;19031;51.400;6.770;2023-03-23T06:44:13;3.63;;;1.17;;
32613;SDS011;19031;51.400;6.770;2023-03-23T06:46:39;0.90;;;0.73;;
32613;SDS011;19031;51.400;6.770;2023-03-23T06:49:06;2.45;;;1.17;;
32613;SDS011;19031;51.400;6.770;2023-03-23T06:51:32;2.25;;;0.98;;
32613;SDS011;19031;51.400;6.770;2023-03-23T06:53:57;3.92;;;1.23;;
32613;SDS011;19031;51.400;6.770;2023-03-23T06:56:23;5.15;;;1.10;;
32613;SDS011;19031;51.400;6.770;2023-03-23T06:58:50;1.20;;;0.68;;
32613;SDS011;19031;51.400;6.770;2023-03-23T07:01:16;2.08;;;0.82;;
32613;SDS011;19031;51.400;6.770;2023-03-23T07:03:42;2.45;;;1.35;;
32613;SDS011;19031;51.400;6.770;2023-03-23T07:06:08;1.60;;;0.88;;
32613;SDS011;19031;51.400;6.770;2023-03-23T07:08:34;4.47;;;0.73;;
32613;SDS011;19031;51.400;6.770;2023-03-23T07:11:00;2.72;;;0.90;;
32613;SDS011;19031;51.400;6.770;2023-03-23T07:13:26;2.05;;;0.90;;
32613;SDS011;19031;51.400;6.770;2023-03-23T07:15:51;1.17;;;0.55;;
32613;SDS011;19031;51.400;6.770;2023-03-23T07:18:17;1.63;;;0.70;;
32613;SDS011;19031;51.400;6.770;2023-03-23T07:20:43;1.83;;;0.70;;
32613;SDS011;19031;51.400;6.770;2023-03-23T07:23:11;1.85;;;0.80;;
32613;SDS011;19031;51.400;6.770;2023-03-23T07:25:37;3.22;;;1.25;;
32613;SDS011;19031;51.400;6.770;2023-03-23T07:28:02;3.33;;;0.90;;
32613;SDS011;19031;51.400;6.770;2023-03-23T07:30:28;3.47;;;1.00;;
32613;SDS011;19031;51.400;6.770;2023-03-23T07:32:55;1.92;;;1.30;;
32613;SDS011;19031;51.400;6.770;2023-03-23T07:35:22;3.67;;;0.70;;
32613;SDS011;19031;51.400;6.770;2023-03-23T07:37:48;2.40;;;0.60;;
32613;SDS011;19031;51.400;6.770;2023-03-23T07:40:14;2.45;;;1.00;;
32613;SDS011;19031;51.400;6.770;2023-03-23T07:42:41;4.68;;;0.68;;
32613;SDS011;19031;51.400;6.770;2023-03-23T07:45:08;2.67;;;0.93;;
32613;SDS011;19031;51.400;6.770;2023-03-23T07:47:36;2.88;;;0.90;;
32613;SDS011;19031;51.400;6.770;2023-03-23T07:50:02;1.67;;;0.80;;
32613;SDS011;19031;51.400;6.770;2023-03-23T07:52:28;2.42;;;0.82;;
32613;SDS011;19031;51.400;6.770;2023-03-23T07:54:55;1.13;;;0.60;;
32613;SDS011;19031;51.400;6.770;2023-03-23T07:57:21;2.90;;;0.80;;
32613;SDS011;19031;51.400;6.770;2023-03-23T07:59:47;0.88;;;0.60;;
32613;SDS011;19031;51.400;6.770;2023-03-23T08:02:13;0.75;;;0.70;;
32613;SDS011;19031;51.400;6.770;2023-03-23T08:04:39;2.03;;;0.40;;
32613;SDS011;19031;51.400;6.770;2023-03-23T08:07:05;0.90;;;0.47;;
32613;SDS011;19031;51.400;6.770;2023-03-23T08:09:31;3.88;;;1.00;;
32613;SDS011;19031;51.400;6.770;2023-03-23T08:11:56;3.22;;;0.60;;
32613;SDS011;19031;51.400;6.770;2023-03-23T08:14:22;4.75;;;0.77;;
32613;SDS011;19031;51.400;6.770;2023-03-23T08:16:52;2.80;;;0.60;;
32613;SDS011;19031;51.400;6.770;2023-03-23T08:19:20;2.53;;;0.70;;
32613;SDS011;19031;51.400;6.770;2023-03-23T08:21:46;2.13;;;0.80;;
32613;SDS011;19031;51.400;6.770;2023-03-23T08:24:11;1.33;;;0.65;;
32613;SDS011;19031;51.400;6.770;2023-03-23T08:26:38;3.30;;;0.55;;
32613;SDS011;19031;51.400;6.770;2023-03-23T08:29:04;1.77;;;0.40;;
32613;SDS011;19031;51.400;6.770;2023-03-23T08:31:30;3.42;;;0.60;;
32613;SDS011;19031;51.400;6.770;2023-03-23T08:34:01;2.65;;;0.90;;
32613;SDS011;19031;51.400;6.770;2023-03-23T08:36:27;2.25;;;0.80;;
32613;SDS011;19031;51.400;6.770;2023-03-23T08:38:53;1.85;;;0.57;;
32613;SDS011;19031;51.400;6.770;2023-03-23T08:41:19;2.33;;;0.77;;
32613;SDS011;19031;51.400;6.770;2023-03-23T08:43:44;1.60;;;0.60;;
32613;SDS011;19031;51.400;6.770;2023-03-23T08:46:11;5.45;;;0.52;;
32613;SDS011;19031;51.400;6.770;2023-03-23T08:48:37;2.33;;;0.68;;
32613;SDS011;19031;51.400;6.770;2023-03-23T08:51:04;2.10;;;0.88;;
32613;SDS011;19031;51.400;6.770;2023-03-23T08:53:31;1.45;;;0.80;;
32613;SDS011;19031;51.400;6.770;2023-03-23T08:56:07;5.03;;;1.10;;
32613;SDS011;19031;51.400;6.770;2023-03-23T08:58:35;6.32;;;0.90;;
32613;SDS011;19031;51.400;6.770;2023-03-23T09:01:02;10.63;;;2.78;;
32613;SDS011;19031;51.400;6.770;2023-03-23T09:03:30;2.35;;;0.73;;
32613;SDS011;19031;51.400;6.770;2023-03-23T09:06:02;1.27;;;0.55;;
32613;SDS011;19031;51.400;6.770;2023-03-23T09:08:30;0.75;;;0.55;;
32613;SDS011;19031;51.400;6.770;2023-03-23T09:11:00;1.67;;;0.50;;
32613;SDS011;19031;51.400;6.770;2023-03-23T09:13:30;1.02;;;0.50;;
32613;SDS011;19031;51.400;6.770;2023-03-23T09:15:56;5.28;;;1.00;;
32613;SDS011;19031;51.400;6.770;2023-03-23T09:18:22;7.25;;;0.73;;
32613;SDS011;19031;51.400;6.770;2023-03-23T09:20:53;2.38;;;0.60;;
32613;SDS011;19031;51.400;6.770;2023-03-23T09:23:21;2.72;;;0.70;;
32613;SDS011;19031;51.400;6.770;2023-03-23T09:25:50;1.73;;;1.10;;
32613;SDS011;19031;51.400;6.770;2023-03-23T09:28:16;6.57;;;0.98;;
32613;SDS011;19031;51.400;6.770;2023-03-23T09:30:42;1.45;;;0.63;;
32613;SDS011;19031;51.400;6.770;2023-03-23T09:33:09;2.67;;;0.90;;
32613;SDS011;19031;51.400;6.770;2023-03-23T09:35:35;3.53;;;0.68;;
32613;SDS011;19031;51.400;6.770;2023-03-23T09:38:03;5.75;;;1.30;;
32613;SDS011;19031;51.400;6.770;2023-03-23T09:49:31;2.95;;;0.60;;
32613;SDS011;19031;51.400;6.770;2023-03-23T09:57:11;1.13;;;0.30;;
32613;SDS011;19031;51.400;6.770;2023-03-23T09:59:54;0.85;;;0.30;;
32613;SDS011;19031;51.400;6.770;2023-03-23T10:02:28;0.38;;;0.20;;
32613;SDS011;19031;51.400;6.770;2023-03-23T10:05:49;2.38;;;0.50;;
32613;SDS011;19031;51.400;6.770;2023-03-23T10:07:56;0.40;;;0.40;;
32613;SDS011;19031;51.400;6.770;2023-03-23T10:10:23;0.60;;;0.47;;
32613;SDS011;19031;51.400;6.770;2023-03-23T10:13:13;0.45;;;0.40;;
32613;SDS011;19031;51.400;6.770;2023-03-23T10:16:07;1.63;;;0.50;;
32613;SDS011;19031;51.400;6.770;2023-03-23T10:18:37;1.88;;;0.63;;
32613;SDS011;19031;51.400;6.770;2023-03-23T10:21:13;2.22;;;1.00;;
32613;SDS011;19031;51.400;6.770;2023-03-23T10:31:41;5.75;;;1.15;;
32613;SDS011;19031;51.400;6.770;2023-03-23T10:34:12;4.88;;;1.08;;
32613;SDS011;19031;51.400;6.770;2023-03-23T10:36:51;5.50;;;1.65;;
32613;SDS011;19031;51.400;6.770;2023-03-23T10:39:46;4.22;;;1.55;;
32613;SDS011;19031;51.400;6.770;2023-03-23T10:42:52;3.60;;;1.05;;
32613;SDS011;19031;51.400;6.770;2023-03-23T10:45:15;4.18;;;0.98;;
32613;SDS011;19031;51.400;6.770;2023-03-23T10:50:41;2.20;;;0.88;;
32613;SDS011;19031;51.400;6.770;2023-03-23T10:53:16;1.92;;;0.90;;
32613;SDS011;19031;51.400;6.770;2023-03-23T10:55:46;2.88;;;0.80;;
32613;SDS011;19031;51.400;6.770;2023-03-23T10:58:21;1.13;;;0.45;;
32613;SDS011;19031;51.400;6.770;2023-03-23T11:00:48;5.63;;;0.50;;
32613;SDS011;19031;51.400;6.770;2023-03-23T11:05:43;3.00;;;0.30;;
32613;SDS011;19031;51.400;6.770;2023-03-23T11:08:14;1.92;;;0.60;;
32613;SDS011;19031;51.400;6.770;2023-03-23T11:10:47;0.73;;;0.47;;
32613;SDS011;19031;51.400;6.770;2023-03-23T11:13:16;2.97;;;1.27;;
32613;SDS011;19031;51.400;6.770;2023-03-23T11:15:45;3.15;;;0.75;;
32613;SDS011;19031;51.400;6.770;2023-03-23T11:18:22;1.08;;;0.40;;
32613;SDS011;19031;51.400;6.770;2023-03-23T11:21:08;4.03;;;0.65;;
32613;SDS011;19031;51.400;6.770;2023-03-23T11:23:37;1.30;;;0.45;;
32613;SDS011;19031;51.400;6.770;2023-03-23T11:28:56;2.67;;;1.13;;
32613;SDS011;19031;51.400;6.770;2023-03-23T11:31:39;0.95;;;0.60;;
32613;SDS011;19031;51.400;6.770;2023-03-23T11:34:13;4.20;;;1.00;;
32613;SDS011;19031;51.400;6.770;2023-03-23T11:36:47;2.55;;;0.82;;
32613;SDS011;19031;51.400;6.770;2023-03-23T11:39:24;4.65;;;1.45;;
32613;SDS011;19031;51.400;6.770;2023-03-23T11:41:54;2.92;;;1.10;;
32613;SDS011;19031;51.400;6.770;2023-03-23T11:44:23;4.47;;;2.38;;
32613;SDS011;19031;51.400;6.770;2023-03-23T11:52:09;2.10;;;1.00;;
32613;SDS011;19031;51.400;6.770;2023-03-23T11:54:46;0.75;;;0.68;;
32613;SDS011;19031;51.400;6.770;2023-03-23T11:57:21;1.50;;;0.70;;
32613;SDS011;19031;51.400;6.770;2023-03-23T11:59:49;5.18;;;1.15;;
32613;SDS011;19031;51.400;6.770;2023-03-23T12:08:18;1.50;;;0.70;;
32613;SDS011;19031;51.400;6.770;2023-03-23T12:11:40;2.42;;;0.63;;
32613;SDS011;19031;51.400;6.770;2023-03-23T12:14:01;3.83;;;0.68;;
32613;SDS011;19031;51.400;6.770;2023-03-23T12:22:22;1.27;;;0.40;;
32613;SDS011;19031;51.400;6.770;2023-03-23T12:25:18;2.42;;;0.68;;
32613;SDS011;19031;51.400;6.770;2023-03-23T12:27:57;0.85;;;0.45;;
32613;SDS011;19031;51.400;6.770;2023-03-23T12:30:29;1.10;;;0.60;;
32613;SDS011;19031;51.400;6.770;2023-03-23T12:36:33;2.15;;;0.70;;
32613;SDS011;19031;51.400;6.770;2023-03-23T12:50:32;1.10;;;0.82;;
32613;SDS011;19031;51.400;6.770;2023-03-23T12:53:52;1.20;;;1.05;;
32613;SDS011;19031;51.400;6.770;2023-03-23T12:56:08;1.80;;;0.80;;
32613;SDS011;19031;51.400;6.770;2023-03-23T12:58:46;1.52;;;0.80;;
32613;SDS011;19031;51.400;6.770;2023-03-23T13:01:17;2.95;;;0.90;;
32613;SDS011;19031;51.400;6.770;2023-03-23T13:06:40;3.20;;;1.02;;
32613;SDS011;19031;51.400;6.770;2023-03-23T13:09:10;4.18;;;1.85;;
32613;SDS011;19031;51.400;6.770;2023-03-23T13:11:38;6.20;;;1.58;;
32613;SDS011;19031;51.400;6.770;2023-03-23T13:22:47;6.63;;;1.30;;
32613;SDS011;19031;51.400;6.770;2023-03-23T13:28:25;3.25;;;1.13;;
32613;SDS011;19031;51.400;6.770;2023-03-23T13:30:57;3.63;;;1.13;;
32613;SDS011;19031;51.400;6.770;2023-03-23T13:33:28;5.82;;;1.80;;
32613;SDS011;19031;51.400;6.770;2023-03-23T13:36:43;2.72;;;1.58;;
32613;SDS011;19031;51.400;6.770;2023-03-23T13:39:02;5.30;;;1.90;;
32613;SDS011;19031;51.400;6.770;2023-03-23T13:41:32;5.15;;;1.40;;
32613;SDS011;19031;51.400;6.770;2023-03-23T13:44:15;5.97;;;1.48;;
32613;SDS011;19031;51.400;6.770;2023-03-23T13:46:56;5.60;;;1.77;;
32613;SDS011;19031;51.400;6.770;2023-03-23T13:49:31;4.65;;;1.33;;
32613;SDS011;19031;51.400;6.770;2023-03-23T13:52:14;2.80;;;0.90;;
32613;SDS011;19031;51.400;6.770;2023-03-23T13:54:44;2.60;;;1.20;;
32613;SDS011;19031;51.400;6.770;2023-03-23T13:57:23;3.17;;;1.20;;
32613;SDS011;19031;51.400;6.770;2023-03-23T13:59:58;2.60;;;0.52;;
32613;SDS011;19031;51.400;6.770;2023-03-23T14:05:23;4.43;;;0.80;;
32613;SDS011;19031;51.400;6.770;2023-03-23T14:10:31;4.63;;;1.08;;
32613;SDS011;19031;51.400;6.770;2023-03-23T14:12:59;1.77;;;1.20;;
32613;SDS011;19031;51.400;6.770;2023-03-23T14:15:30;2.88;;;1.08;;
32613;SDS011;19031;51.400;6.770;2023-03-23T14:18:05;1.85;;;0.90;;
32613;SDS011;19031;51.400;6.770;2023-03-23T14:20:32;1.30;;;0.77;;
32613;SDS011;19031;51.400;6.770;2023-03-23T14:23:01;1.25;;;0.68;;
32613;SDS011;19031;51.400;6.770;2023-03-23T14:25:28;1.67;;;1.15;;
32613;SDS011;19031;51.400;6.770;2023-03-23T14:27:58;1.52;;;1.05;;
32613;SDS011;19031;51.400;6.770;2023-03-23T14:30:25;1.98;;;0.70;;
32613;SDS011;19031;51.400;6.770;2023-03-23T14:33:02;1.45;;;0.80;;
32613;SDS011;19031;51.400;6.770;2023-03-23T14:35:32;3.88;;;0.80;;
32613;SDS011;19031;51.400;6.770;2023-03-23T14:38:02;1.95;;;0.80;;
32613;SDS011;19031;51.400;6.770;2023-03-23T14:40:29;3.33;;;1.00;;
32613;SDS011;19031;51.400;6.770;2023-03-23T14:42:56;2.00;;;0.70;;
32613;SDS011;19031;51.400;6.770;2023-03-23T14:45:23;3.10;;;1.17;;
32613;SDS011;19031;51.400;6.770;2023-03-23T14:48:08;1.90;;;0.77;;
32613;SDS011;19031;51.400;6.770;2023-03-23T14:50:40;1.38;;;0.63;;
32613;SDS011;19031;51.400;6.770;2023-03-23T14:53:29;1.88;;;0.68;;
32613;SDS011;19031;51.400;6.770;2023-03-23T14:56:13;3.05;;;0.75;;
32613;SDS011;19031;51.400;6.770;2023-03-23T14:58:43;3.72;;;0.80;;
32613;SDS011;19031;51.400;6.770;2023-03-23T15:01:10;2.40;;;0.82;;
32613;SDS011;19031;51.400;6.770;2023-03-23T15:03:42;1.48;;;0.60;;
32613;SDS011;19031;51.400;6.770;2023-03-23T15:06:14;1.13;;;0.40;;
32613;SDS011;19031;51.400;6.770;2023-03-23T15:08:42;2.72;;;0.73;;
32613;SDS011;19031;51.400;6.770;2023-03-23T15:13:53;1.73;;;0.77;;
32613;SDS011;19031;51.400;6.770;2023-03-23T15:16:26;1.25;;;0.60;;
32613;SDS011;19031;51.400;6.770;2023-03-23T15:23:59;2.58;;;0.50;;
32613;SDS011;19031;51.400;6.770;2023-03-23T15:26:33;0.90;;;0.40;;
32613;SDS011;19031;51.400;6.770;2023-03-23T15:31:32;1.08;;;0.52;;
32613;SDS011;19031;51.400;6.770;2023-03-23T15:34:02;2.58;;;0.40;;
32613;SDS011;19031;51.400;6.770;2023-03-23T15:36:32;1.23;;;0.60;;
32613;SDS011;19031;51.400;6.770;2023-03-23T15:39:00;2.03;;;0.80;;
32613;SDS011;19031;51.400;6.770;2023-03-23T15:41:30;5.70;;;0.68;;
32613;SDS011;19031;51.400;6.770;2023-03-23T15:44:09;1.90;;;0.45;;
32613;SDS011;19031;51.400;6.770;2023-03-23T15:46:49;1.75;;;0.63;;
32613;SDS011;19031;51.400;6.770;2023-03-23T15:49:16;0.75;;;0.40;;
32613;SDS011;19031;51.400;6.770;2023-03-23T15:51:42;5.65;;;1.00;;
32613;SDS011;19031;51.400;6.770;2023-03-23T15:54:12;1.63;;;0.68;;
32613;SDS011;19031;51.400;6.770;2023-03-23T15:56:39;1.58;;;0.63;;
32613;SDS011;19031;51.400;6.770;2023-03-23T15:59:07;4.55;;;0.90;;
32613;SDS011;19031;51.400;6.770;2023-03-23T16:01:33;3.95;;;1.00;;
32613;SDS011;19031;51.400;6.770;2023-03-23T16:06:27;1.90;;;0.98;;
32613;SDS011;19031;51.400;6.770;2023-03-23T16:08:55;4.88;;;1.10;;
32613;SDS011;19031;51.400;6.770;2023-03-23T16:11:22;3.95;;;1.10;;
32613;SDS011;19031;51.400;6.770;2023-03-23T16:13:51;5.07;;;1.25;;
32613;SDS011;19031;51.400;6.770;2023-03-23T16:16:18;3.45;;;0.77;;
32613;SDS011;19031;51.400;6.770;2023-03-23T16:18:46;4.15;;;1.25;;
32613;SDS011;19031;51.400;6.770;2023-03-23T16:21:12;1.15;;;0.55;;
32613;SDS011;19031;51.400;6.770;2023-03-23T16:23:37;3.35;;;0.90;;
32613;SDS011;19031;51.400;6.770;2023-03-23T16:26:04;2.15;;;0.60;;
32613;SDS011;19031;51.400;6.770;2023-03-23T16:28:31;2.70;;;0.90;;
32613;SDS011;19031;51.400;6.770;2023-03-23T16:30:56;1.95;;;0.65;;
32613;SDS011;19031;51.400;6.770;2023-03-23T16:33:22;2.65;;;0.80;;
32613;SDS011;19031;51.400;6.770;2023-03-23T16:35:47;3.38;;;1.02;;
32613;SDS011;19031;51.400;6.770;2023-03-23T16:38:13;3.28;;;0.70;;
32613;SDS011;19031;51.400;6.770;2023-03-23T16:40:41;4.55;;;0.60;;
32613;SDS011;19031;51.400;6.770;2023-03-23T16:43:08;1.75;;;0.80;;
32613;SDS011;19031;51.400;6.770;2023-03-23T16:45:34;3.38;;;0.80;;
32613;SDS011;19031;51.400;6.770;2023-03-23T16:47:59;6.18;;;1.70;;
32613;SDS011;19031;51.400;6.770;2023-03-23T16:50:27;4.07;;;1.88;;
32613;SDS011;19031;51.400;6.770;2023-03-23T16:52:54;15.02;;;5.40;;
32613;SDS011;19031;51.400;6.770;2023-03-23T16:55:20;28.52;;;8.20;;
32613;SDS011;19031;51.400;6.770;2023-03-23T16:57:45;10.25;;;3.63;;
32613;SDS011;19031;51.400;6.770;2023-03-23T17:00:15;4.18;;;1.50;;